Time;durP1;ratioP1;P1;durP2;ratioP2;P2;SDS_P1;SDS_P2;PMS_P1;PMS_P2;Temp;Humidity;BMP_temperature;BMP_pressure;BME280_temperature;BME280_humidity;BME280_pressure;Samples;Min_cycle;Max_cycle;Signal;HPM_P1;HPM_P2
2023/12/04 00:02:21;;;;;;;5.57;2.15;;;15.50;79.50;;;;;;10518029;28;20058;-60
2023/12/04 00:07:23;;;;;;;3.47;2.47;;;15.50;79.50;;;;;;10517919;28;20117;-61
2023/12/04 00:12:26;;;;;;;2.90;1.77;;;15.50;79.40;;;;;;10514131;28;20523;-60
2023/12/04 00:17:28;;;;;;;3.80;2.67;;;15.50;79.50;;;;;;10514853;28;20098;-61
2023/12/04 00:22:30;;;;;;;2.87;1.60;;;15.50;79.40;;;;;;10517760;28;20082;-60
2023/12/04 00:27:33;;;;;;;2.30;1.73;;;15.50;79.40;;;;;;10512396;28;20049;-60
2023/12/04 00:32:35;;;;;;;3.47;1.90;;;15.50;79.40;;;;;;10527220;28;20106;-60
2023/12/04 00:37:38;;;;;;;5.23;2.33;;;15.50;79.40;;;;;;10526750;28;20088;-62
2023/12/04 00:42:41;;;;;;;;;;;15.50;79.30;;;;;;10519954;28;20111;-60
2023/12/04 00:47:43;;;;;;;3.13;2.10;;;15.50;79.30;;;;;;10519195;28;20745;-61
2023/12/04 00:52:45;;;;;;;5.97;2.47;;;15.50;79.30;;;;;;10523502;28;20058;-60
2023/12/04 00:57:48;;;;;;;4.73;2.80;;;15.50;79.20;;;;;;10512866;28;20075;-60
2023/12/04 01:02:50;;;;;;;5.55;2.35;;;15.50;79.20;;;;;;10518907;28;20054;-60
2023/12/04 01:07:53;;;;;;;5.50;2.63;;;15.50;79.20;;;;;;10524361;28;20050;-60
2023/12/04 01:12:56;;;;;;;;;;;15.50;79.20;;;;;;10520800;28;20055;-60
2023/12/04 01:18:00;;;;;;;7.05;4.75;;;15.50;79.00;;;;;;10523172;28;19959;-59
2023/12/04 01:23:02;;;;;;;3.97;2.25;;;15.50;78.70;;;;;;10525679;28;20051;-60
2023/12/04 01:28:05;;;;;;;2.83;1.93;;;15.50;78.90;;;;;;10526536;28;20056;-60
2023/12/04 01:33:08;;;;;;;3.15;2.05;;;15.50;78.90;;;;;;10528245;28;20497;-59
2023/12/04 01:38:09;;;;;;;4.28;2.28;;;15.50;78.90;;;;;;10534513;28;20491;-60
2023/12/04 01:43:13;;;;;;;3.15;2.03;;;15.40;78.90;;;;;;10532002;28;20059;-59
2023/12/04 01:48:15;;;;;;;3.53;2.47;;;15.40;78.80;;;;;;10523650;28;20664;-58
2023/12/04 01:53:17;;;;;;;2.40;1.92;;;15.40;78.80;;;;;;10530950;28;20075;-60
2023/12/04 01:58:21;;;;;;;4.40;2.25;;;15.50;78.90;;;;;;10526091;28;20048;-59
2023/12/04 02:03:23;;;;;;;3.00;2.33;;;15.50;78.80;;;;;;10527184;28;20068;-59
2023/12/04 02:08:26;;;;;;;3.28;2.17;;;15.50;78.70;;;;;;10519550;28;20040;-59
2023/12/04 02:13:29;;;;;;;2.33;1.88;;;15.40;78.70;;;;;;10509549;28;20051;-61
2023/12/04 02:18:31;;;;;;;2.75;1.98;;;15.40;78.70;;;;;;10517980;28;20051;-60
2023/12/04 02:23:33;;;;;;;2.53;2.03;;;15.40;78.60;;;;;;10510797;28;20059;-58
2023/12/04 02:28:39;;;;;;;3.13;2.03;;;15.50;78.70;;;;;;10523636;28;20964;-58
2023/12/04 02:33:42;;;;;;;2.08;1.80;;;15.40;78.70;;;;;;10513819;28;20051;-58
2023/12/04 02:38:44;;;;;;;2.13;1.80;;;15.40;79.20;;;;;;10519445;28;20055;-60
2023/12/04 02:43:48;;;;;;;1.92;1.33;;;15.40;78.60;;;;;;10517739;28;20075;-58
2023/12/04 02:48:50;;;;;;;2.85;1.52;;;15.40;78.60;;;;;;10522398;28;20058;-58
2023/12/04 02:53:51;;;;;;;3.03;1.93;;;15.40;78.60;;;;;;10517645;28;20059;-58
2023/12/04 02:58:55;;;;;;;2.40;1.73;;;15.40;78.50;;;;;;10519721;28;20059;-60
2023/12/04 03:03:57;;;;;;;2.22;1.50;;;15.40;78.50;;;;;;10523723;28;20056;-61
2023/12/04 03:09:00;;;;;;;2.80;1.55;;;15.40;78.50;;;;;;10514230;28;20044;-59
2023/12/04 03:14:03;;;;;;;2.53;1.90;;;15.40;78.50;;;;;;10527444;28;21195;-58
2023/12/04 03:19:05;;;;;;;3.40;1.90;;;15.40;78.50;;;;;;10528044;28;20052;-59
2023/12/04 03:24:07;;;;;;;2.13;1.83;;;15.40;78.40;;;;;;10515059;28;20052;-59
2023/12/04 03:29:10;;;;;;;2.43;1.77;;;15.40;78.40;;;;;;10527459;28;20044;-59
2023/12/04 03:34:12;;;;;;;2.42;1.80;;;15.40;78.40;;;;;;10523180;28;20694;-58
2023/12/04 03:39:14;;;;;;;1.60;1.33;;;15.30;78.30;;;;;;10522904;28;20047;-59
2023/12/04 03:44:17;;;;;;;2.63;1.60;;;15.30;78.30;;;;;;10522149;28;20044;-59
2023/12/04 03:49:19;;;;;;;3.10;1.60;;;15.30;78.30;;;;;;10520906;28;20071;-57
2023/12/04 03:54:21;;;;;;;2.08;1.23;;;15.30;78.20;;;;;;10520231;28;20461;-59
2023/12/04 04:15:33;;;;;;;1.90;1.45;;;15.30;77.70;;;;;;10589162;27;20115;-58
2023/12/04 04:20:35;;;;;;;2.00;1.42;;;15.30;78.20;;;;;;10610761;27;20047;-60
2023/12/04 04:25:37;;;;;;;2.20;1.83;;;15.30;78.20;;;;;;10608665;27;20051;-58
2023/12/04 04:30:41;;;;;;;1.48;1.20;;;15.30;77.90;;;;;;10603380;27;20096;-58
2023/12/04 04:35:42;;;;;;;1.73;1.50;;;15.30;78.00;;;;;;10609057;27;20055;-59
2023/12/04 04:40:44;;;;;;;2.17;1.60;;;15.30;77.80;;;;;;10605730;27;20062;-58
2023/12/04 04:45:47;;;;;;;2.33;1.40;;;15.30;77.80;;;;;;10610906;27;20059;-59
2023/12/04 04:50:49;;;;;;;1.80;1.17;;;15.30;77.80;;;;;;10609324;27;20050;-60
2023/12/04 04:55:51;;;;;;;1.92;1.35;;;15.30;77.80;;;;;;10600579;27;20741;-60
2023/12/04 05:00:54;;;;;;;1.77;1.20;;;15.30;77.90;;;;;;10609002;27;20854;-58
2023/12/04 05:05:57;;;;;;;1.70;1.38;;;15.40;77.80;;;;;;10608543;27;20124;-60
2023/12/04 05:10:58;;;;;;;5.77;1.30;;;15.40;77.80;;;;;;10604270;27;20047;-59
2023/12/04 05:16:02;;;;;;;1.90;1.40;;;15.40;77.90;;;;;;10602010;27;20391;-60
2023/12/04 05:21:04;;;;;;;1.15;0.95;;;15.40;77.90;;;;;;10603153;27;20058;-60
2023/12/04 05:26:07;;;;;;;1.92;1.42;;;15.40;77.90;;;;;;10570009;27;20051;-61
2023/12/04 05:31:10;;;;;;;;;;;15.40;78.10;;;;;;10578588;27;20063;-58
2023/12/04 05:36:12;;;;;;;;;;;15.50;77.90;;;;;;10567933;27;20545;-60
2023/12/04 05:41:14;;;;;;;1.48;1.02;;;15.50;77.90;;;;;;10577423;27;19983;-61
2023/12/04 05:46:17;;;;;;;1.00;0.90;;;15.50;78.20;;;;;;10583571;27;20050;-60
2023/12/04 05:51:19;;;;;;;3.30;1.58;;;15.50;78.20;;;;;;10586407;27;20047;-58
2023/12/04 05:56:21;;;;;;;3.70;2.80;;;15.50;78.10;;;;;;10578590;27;20051;-60
2023/12/04 06:01:26;;;;;;;1.77;1.33;;;15.50;77.90;;;;;;10562973;27;20063;-58
2023/12/04 06:06:28;;;;;;;1.67;1.30;;;15.50;78.20;;;;;;10557323;27;20051;-59
2023/12/04 06:11:30;;;;;;;1.90;1.33;;;15.50;78.20;;;;;;10559455;27;20062;-59
2023/12/04 06:16:33;;;;;;;1.47;0.90;;;15.50;78.30;;;;;;10560900;27;20141;-59
2023/12/04 06:21:35;;;;;;;1.30;1.05;;;15.40;77.90;;;;;;10558394;27;20550;-60
2023/12/04 06:26:39;;;;;;;1.27;0.80;;;15.40;78.30;;;;;;10563032;27;20044;-61
2023/12/04 06:31:43;;;;;;;1.50;1.10;;;15.50;78.20;;;;;;10554880;27;20491;-61
2023/12/04 06:36:46;;;;;;;1.10;0.95;;;15.50;78.30;;;;;;10554065;27;20054;-62
2023/12/04 06:41:48;;;;;;;6.05;2.78;;;15.60;78.30;;;;;;10553827;27;20055;-60
2023/12/04 06:46:53;;;;;;;1.77;1.05;;;15.60;78.10;;;;;;10558398;27;20135;-60
2023/12/04 06:51:55;;;;;;;1.52;1.20;;;15.60;78.20;;;;;;10554558;27;20046;-59
2023/12/04 06:56:57;;;;;;;1.90;1.27;;;15.60;78.10;;;;;;10556989;27;20082;-59
2023/12/04 07:02:00;;;;;;;2.43;1.13;;;15.50;78.10;;;;;;10557040;27;20089;-59
2023/12/04 07:07:04;;;;;;;2.00;1.27;;;15.60;78.30;;;;;;10559583;27;20425;-60
2023/12/04 07:12:07;;;;;;;3.72;1.55;;;15.60;78.20;;;;;;10551260;27;20047;-63
2023/12/04 07:17:11;;;;;;;2.50;1.20;;;15.50;78.00;;;;;;10563253;27;20537;-59
2023/12/04 07:22:13;;;;;;;2.08;1.50;;;15.60;78.10;;;;;;10559121;27;20047;-59
2023/12/04 07:27:16;;;;;;;3.23;1.93;;;15.60;78.10;;;;;;10553472;27;20054;-61
2023/12/04 07:32:19;;;;;;;2.60;1.55;;;15.50;78.00;;;;;;10564075;27;20046;-59
2023/12/04 07:37:21;;;;;;;2.17;1.50;;;15.50;78.00;;;;;;10557932;27;20039;-58
2023/12/04 07:42:23;;;;;;;3.40;1.88;;;15.50;78.00;;;;;;10553260;27;20235;-61
2023/12/04 07:47:26;;;;;;;2.50;1.83;;;15.50;77.90;;;;;;10553886;27;20043;-58
2023/12/04 07:52:28;;;;;;;2.03;1.40;;;15.50;78.00;;;;;;10559330;27;20056;-60
2023/12/04 07:57:31;;;;;;;1.77;1.37;;;15.50;78.00;;;;;;10559132;27;20051;-61
2023/12/04 08:02:34;;;;;;;1.92;1.25;;;15.50;77.80;;;;;;10553783;27;20043;-60
2023/12/04 08:07:36;;;;;;;3.03;1.33;;;15.50;77.80;;;;;;10551847;27;20054;-58
2023/12/04 08:12:39;;;;;;;4.97;2.93;;;15.60;77.90;;;;;;10553180;27;20047;-60
2023/12/04 08:17:42;;;;;;;1.55;1.10;;;15.60;77.10;;;;;;10551533;28;20105;-59
2023/12/04 08:22:45;;;;;;;1.65;1.30;;;15.50;77.90;;;;;;10558473;28;20051;-59
2023/12/04 08:27:47;;;;;;;4.57;1.83;;;15.50;77.80;;;;;;10552514;28;20079;-59
2023/12/04 08:32:50;;;;;;;;;;;15.50;77.60;;;;;;10557020;28;20227;-58
2023/12/04 08:37:52;;;;;;;2.50;1.67;;;15.50;77.60;;;;;;10553492;28;20290;-60
2023/12/04 08:42:54;;;;;;;2.33;1.57;;;15.50;77.60;;;;;;10558561;28;20044;-62
2023/12/04 08:47:57;;;;;;;3.37;1.93;;;15.50;77.50;;;;;;10558743;27;20048;-59
2023/12/04 08:52:59;;;;;;;2.70;1.70;;;15.50;77.40;;;;;;10560995;28;20043;-59
2023/12/04 08:58:01;;;;;;;2.47;1.67;;;15.50;77.40;;;;;;10558515;27;20043;-58
2023/12/04 09:03:04;;;;;;;3.43;2.50;;;15.50;77.30;;;;;;10562076;27;20047;-60
2023/12/04 09:08:07;;;;;;;2.63;1.63;;;15.50;77.00;;;;;;10559962;27;20039;-60
2023/12/04 09:13:08;;;;;;;1.83;1.30;;;15.50;77.20;;;;;;10563432;27;20051;-59
2023/12/04 09:18:12;;;;;;;1.70;1.13;;;15.50;77.10;;;;;;10560687;27;20488;-58
2023/12/04 09:23:13;;;;;;;2.25;1.48;;;15.50;77.10;;;;;;10563736;27;20039;-60
2023/12/04 09:28:16;;;;;;;4.43;1.40;;;15.50;77.00;;;;;;10563413;27;20838;-60
2023/12/04 09:33:19;;;;;;;1.90;1.30;;;15.50;76.90;;;;;;10559083;27;20051;-59
2023/12/04 09:38:21;;;;;;;3.38;1.63;;;15.50;76.80;;;;;;10557532;27;20056;-59
2023/12/04 09:43:23;;;;;;;2.47;1.60;;;15.50;76.80;;;;;;10557271;27;20048;-58
2023/12/04 09:48:27;;;;;;;5.33;1.50;;;15.50;76.50;;;;;;10568074;27;20058;-59
2023/12/04 09:53:33;;;;;;;2.58;1.67;;;15.40;76.60;;;;;;10566086;27;21386;-60
2023/12/04 09:58:37;;;;;;;5.15;3.08;;;15.50;76.70;;;;;;10565848;27;21307;-59
2023/12/04 10:03:42;;;;;;;1.98;1.58;;;15.50;76.30;;;;;;10556932;27;20643;-58
2023/12/04 10:08:44;;;;;;;1.88;1.48;;;15.50;76.50;;;;;;10559924;27;20054;-59
2023/12/04 10:13:46;;;;;;;5.17;3.70;;;15.50;76.50;;;;;;10559222;27;20051;-57
2023/12/04 10:18:49;;;;;;;2.10;1.50;;;15.50;76.10;;;;;;10563519;27;20484;-58
2023/12/04 10:23:51;;;;;;;1.63;1.40;;;15.50;76.20;;;;;;10561683;27;20741;-59
2023/12/04 10:29:00;;;;;;;2.63;1.90;;;15.50;76.20;;;;;;10567136;27;20047;-57
2023/12/04 10:34:05;;;;;;;2.22;1.83;;;15.50;76.00;;;;;;10557612;27;20474;-58
2023/12/04 10:39:08;;;;;;;2.35;1.25;;;15.50;76.00;;;;;;10563367;27;20137;-63
2023/12/04 10:44:10;;;;;;;4.47;2.67;;;15.50;75.70;;;;;;10555141;27;20047;-59
2023/12/04 10:49:14;;;;;;;1.63;1.20;;;15.60;75.50;;;;;;10559927;27;20077;-59
2023/12/04 10:54:16;;;;;;;3.88;1.30;;;15.50;75.50;;;;;;10558960;27;20147;-58
2023/12/04 10:59:24;;;;;;;1.90;1.57;;;15.50;75.60;;;;;;10559675;27;20050;-60
2023/12/04 11:04:29;;;;;;;1.20;0.98;;;15.50;75.60;;;;;;10554880;27;21241;-59
2023/12/04 11:09:34;;;;;;;4.50;2.17;;;15.50;75.10;;;;;;10553193;27;20047;-58
2023/12/04 11:14:44;;;;;;;4.63;1.40;;;15.60;75.40;;;;;;10552711;27;20052;-57
2023/12/04 11:19:56;;;;;;;2.72;1.80;;;15.50;75.40;;;;;;10551870;27;20157;-60
2023/12/04 11:24:58;;;;;;;3.77;1.40;;;15.50;75.40;;;;;;10551434;27;20051;-58
2023/12/04 11:30:02;;;;;;;3.92;1.52;;;15.50;75.30;;;;;;10553490;27;20051;-58
2023/12/04 11:35:14;;;;;;;3.22;1.52;;;15.60;75.30;;;;;;10550658;27;20071;-57
2023/12/04 11:40:17;;;;;;;2.20;1.47;;;15.50;75.40;;;;;;10550964;27;20134;-57
2023/12/04 11:45:22;;;;;;;1.80;1.02;;;15.50;75.40;;;;;;10560611;27;20413;-60
2023/12/04 11:50:27;;;;;;;3.55;1.40;;;15.50;75.40;;;;;;10555062;27;20640;-57
2023/12/04 11:55:29;;;;;;;3.03;1.80;;;15.50;75.30;;;;;;10552807;27;20062;-59
2023/12/04 12:00:31;;;;;;;3.60;1.97;;;15.50;75.10;;;;;;10554630;27;20434;-59
2023/12/04 12:05:35;;;;;;;2.55;1.40;;;15.50;74.80;;;;;;10549023;27;20047;-57
2023/12/04 12:10:38;;;;;;;1.92;1.50;;;15.50;75.00;;;;;;10554235;27;20118;-56
2023/12/04 12:15:40;;;;;;;1.95;1.38;;;15.50;74.80;;;;;;10557016;28;20062;-59
2023/12/04 12:20:43;;;;;;;3.42;1.98;;;15.50;74.70;;;;;;10553286;27;20056;-57
2023/12/04 12:25:45;;;;;;;2.97;1.55;;;15.50;74.80;;;;;;10553854;27;20048;-55
2023/12/04 12:30:47;;;;;;;1.57;1.27;;;15.50;74.60;;;;;;10557988;28;20066;-56
2023/12/04 12:35:51;;;;;;;2.90;1.83;;;15.50;75.00;;;;;;10563157;27;20055;-56
2023/12/04 12:40:53;;;;;;;2.90;1.77;;;15.50;75.00;;;;;;10562212;27;20165;-57
2023/12/04 12:45:55;;;;;;;3.43;2.00;;;15.50;75.10;;;;;;10564930;27;20800;-58
2023/12/04 12:50:58;;;;;;;2.60;1.57;;;15.50;75.20;;;;;;10571869;27;20055;-58
2023/12/04 12:56:01;;;;;;;3.90;2.13;;;15.50;74.90;;;;;;10565415;27;20101;-60
2023/12/04 13:01:03;;;;;;;5.72;1.92;;;15.50;75.20;;;;;;10565163;27;20054;-60
2023/12/04 13:06:07;;;;;;;2.75;1.58;;;15.50;75.30;;;;;;10554933;27;20043;-60
2023/12/04 13:11:09;;;;;;;4.93;2.03;;;15.50;75.20;;;;;;10566559;27;20055;-61
2023/12/04 13:16:11;;;;;;;2.93;1.80;;;15.50;75.20;;;;;;10560867;27;20562;-59
2023/12/04 13:21:15;;;;;;;4.55;2.08;;;15.50;75.40;;;;;;10567057;27;20084;-61
2023/12/04 13:26:16;;;;;;;2.40;1.92;;;15.50;75.10;;;;;;10564386;27;20044;-60
2023/12/04 13:31:20;;;;;;;2.30;1.73;;;15.40;75.00;;;;;;10558745;27;20502;-59
2023/12/04 13:36:24;;;;;;;2.17;1.35;;;15.40;75.20;;;;;;10566195;27;20095;-59
2023/12/04 13:46:47;;;;;;;2.90;2.38;;;15.50;75.10;;;;;;10564163;27;20379;-61
2023/12/04 13:51:50;;;;;;;3.38;1.98;;;15.50;75.30;;;;;;10565189;27;20106;-60
2023/12/04 13:56:56;;;;;;;4.07;2.10;;;15.50;75.80;;;;;;10556623;27;20048;-58
2023/12/04 14:02:00;;;;;;;3.92;2.22;;;15.50;75.50;;;;;;10562900;27;20051;-60
2023/12/04 14:07:04;;;;;;;3.20;1.80;;;15.50;75.70;;;;;;10560685;27;21273;-60
2023/12/04 14:12:06;;;;;;;2.70;1.83;;;15.60;75.70;;;;;;10571883;27;20066;-60
2023/12/04 14:17:09;;;;;;;3.58;1.92;;;15.60;76.10;;;;;;10565651;27;20459;-61
2023/12/04 14:22:12;;;;;;;3.42;1.95;;;15.60;76.10;;;;;;10561267;27;20044;-60
2023/12/04 14:27:14;;;;;;;5.85;2.88;;;15.60;76.10;;;;;;10561042;27;20054;-60
2023/12/04 14:32:17;;;;;;;6.25;2.17;;;15.70;76.40;;;;;;10562291;27;20059;-62
2023/12/04 14:37:21;;;;;;;5.95;1.48;;;15.70;76.40;;;;;;10562830;27;20047;-60
2023/12/04 14:42:22;;;;;;;6.03;1.50;;;15.70;76.50;;;;;;10559016;27;20056;-62
2023/12/04 14:47:24;;;;;;;4.77;2.30;;;15.70;76.60;;;;;;10558517;27;20051;-59
2023/12/04 14:52:29;;;;;;;3.50;2.03;;;15.70;76.60;;;;;;10558768;27;20547;-60
2023/12/04 14:57:55;;;;;;;1.92;1.55;;;15.70;76.70;;;;;;10558593;27;20054;-60
2023/12/04 15:09:24;;;;;;;4.22;2.20;;;15.80;76.80;;;;;;10551824;27;20233;-60
2023/12/04 15:13:55;;;;;;;2.22;1.42;;;15.80;76.60;;;;;;10556466;27;20063;-59
2023/12/04 15:19:27;;;;;;;2.72;1.90;;;15.80;76.70;;;;;;10554966;27;20133;-60
2023/12/04 15:24:31;;;;;;;3.00;1.63;;;15.80;76.70;;;;;;10556172;27;20043;-58
2023/12/04 15:29:34;;;;;;;5.85;1.98;;;15.80;76.70;;;;;;10552895;27;20076;-60
2023/12/04 15:34:35;;;;;;;4.65;1.80;;;15.80;76.60;;;;;;10558396;27;20047;-61
2023/12/04 15:39:39;;;;;;;2.23;1.40;;;15.80;76.60;;;;;;10559577;27;20063;-60
2023/12/04 15:44:41;;;;;;;3.00;1.75;;;15.80;76.80;;;;;;10557101;27;20185;-61
2023/12/04 15:49:43;;;;;;;3.47;1.10;;;15.90;76.80;;;;;;10553075;27;20056;-62
2023/12/04 15:54:46;;;;;;;3.37;1.67;;;15.90;76.90;;;;;;10554591;27;20676;-62
2023/12/04 15:59:48;;;;;;;3.25;1.67;;;15.90;77.00;;;;;;10560844;27;20059;-62
2023/12/04 16:04:50;;;;;;;5.53;1.63;;;15.90;77.00;;;;;;10558959;27;20051;-63
2023/12/04 16:09:53;;;;;;;4.00;2.00;;;15.90;77.20;;;;;;10555270;27;20046;-62
2023/12/04 16:14:56;;;;;;;4.22;1.90;;;15.90;77.20;;;;;;10561267;27;20043;-60
2023/12/04 16:19:59;;;;;;;1.65;1.13;;;15.90;77.20;;;;;;10556350;28;20104;-61
2023/12/04 16:25:03;;;;;;;2.10;1.10;;;15.90;77.30;;;;;;10558737;27;20055;-62
2023/12/04 16:30:06;;;;;;;3.28;1.83;;;15.90;78.00;;;;;;10548421;27;20062;-61
2023/12/04 16:35:08;;;;;;;4.05;1.27;;;16.00;77.50;;;;;;10549425;28;20101;-60
2023/12/04 16:40:12;;;;;;;3.60;1.10;;;16.00;77.60;;;;;;10557930;28;20120;-63
2023/12/04 16:45:14;;;;;;;10.13;1.83;;;16.00;77.60;;;;;;10560207;28;20479;-61
2023/12/04 16:50:16;;;;;;;2.47;0.87;;;16.00;77.50;;;;;;10557876;28;20082;-61
2023/12/04 16:55:19;;;;;;;2.90;1.37;;;16.00;77.60;;;;;;10560255;27;20086;-60
2023/12/04 17:00:23;;;;;;;2.33;1.45;;;16.00;77.60;;;;;;10548025;28;20714;-62
2023/12/04 17:05:27;;;;;;;4.97;3.22;;;16.00;77.60;;;;;;10554683;27;20740;-62
2023/12/04 17:10:30;;;;;;;5.88;3.50;;;15.90;77.40;;;;;;10550734;27;20047;-62
2023/12/04 17:15:32;;;;;;;6.28;2.83;;;15.80;77.30;;;;;;10475496;28;20060;-63
2023/12/04 17:20:34;;;;;;;5.50;2.97;;;15.80;77.50;;;;;;10470047;28;20056;-64
2023/12/04 17:25:37;;;;;;;10.03;5.07;;;15.80;77.30;;;;;;10476452;28;20071;-62
2023/12/04 17:30:39;;;;;;;6.78;3.67;;;15.80;77.00;;;;;;10477057;28;20554;-61
2023/12/04 17:35:41;;;;;;;6.77;4.23;;;15.70;77.30;;;;;;10475318;28;20415;-63
2023/12/04 17:40:45;;;;;;;11.43;4.70;;;15.70;77.20;;;;;;10470543;28;20105;-63
2023/12/04 17:45:46;;;;;;;8.88;4.95;;;15.70;77.10;;;;;;10474629;28;20090;-63
2023/12/04 17:50:48;;;;;;;8.30;4.23;;;15.60;77.10;;;;;;10469485;28;20049;-63
2023/12/04 17:55:52;;;;;;;8.47;3.27;;;15.60;77.10;;;;;;10471190;28;20060;-62
2023/12/04 18:00:53;;;;;;;6.97;3.47;;;15.70;77.40;;;;;;10478741;28;20052;-63
2023/12/04 18:05:56;;;;;;;5.70;2.67;;;15.80;77.50;;;;;;10471688;28;20521;-63
2023/12/04 18:10:59;;;;;;;5.57;2.95;;;15.80;77.50;;;;;;10475910;27;20054;-63
2023/12/04 18:16:01;;;;;;;6.85;2.88;;;15.80;77.60;;;;;;10553526;27;20047;-62
2023/12/04 18:21:05;;;;;;;5.95;3.03;;;15.80;77.60;;;;;;10559591;27;20085;-62
2023/12/04 18:26:09;;;;;;;6.95;2.72;;;15.80;77.80;;;;;;10558221;27;20048;-62
2023/12/04 18:31:14;;;;;;;6.05;3.33;;;15.80;77.50;;;;;;10555690;27;20092;-66
2023/12/04 18:36:16;;;;;;;10.27;4.35;;;15.70;77.40;;;;;;10548265;27;20051;-61
2023/12/04 18:41:21;;;;;;;7.50;4.30;;;15.70;77.30;;;;;;10555508;27;20054;-63
2023/12/04 18:46:27;;;;;;;12.07;3.47;;;16.90;78.70;;;;;;10555223;27;20054;-56
2023/12/04 18:51:31;;;;;;;9.07;4.00;;;18.20;73.20;;;;;;10556808;27;20055;-52
2023/12/04 18:56:34;;;;;;;18.85;3.85;;;17.70;73.30;;;;;;10549438;27;20413;-56
2023/12/04 19:01:36;;;;;;;6.05;3.75;;;17.00;74.10;;;;;;10567947;27;20055;-56
2023/12/04 19:06:38;;;;;;;6.90;5.57;;;16.70;74.90;;;;;;10551517;27;20055;-51
2023/12/04 19:11:41;;;;;;;7.00;3.83;;;16.50;76.10;;;;;;10564729;27;20881;-55
2023/12/04 19:16:43;;;;;;;7.68;4.30;;;16.40;76.50;;;;;;10554429;27;20507;-56
2023/12/04 19:21:45;;;;;;;9.17;4.50;;;16.40;76.40;;;;;;10561621;27;20055;-55
2023/12/04 19:26:49;;;;;;;10.73;6.27;;;16.20;76.90;;;;;;10558488;27;20053;-57
2023/12/04 19:31:52;;;;;;;8.10;4.38;;;16.10;76.60;;;;;;10556947;27;20051;-55
2023/12/04 19:36:54;;;;;;;7.22;4.18;;;16.10;77.20;;;;;;10556587;27;20047;-53
2023/12/04 19:41:57;;;;;;;4.17;2.63;;;16.40;77.60;;;;;;10567330;27;20153;-55
2023/12/04 19:47:01;;;;;;;6.93;3.97;;;16.60;77.20;;;;;;10557489;27;20750;-56
2023/12/04 19:52:03;;;;;;;6.70;2.75;;;16.60;76.90;;;;;;10561229;27;20750;-59
2023/12/04 19:57:07;;;;;;;;;;;16.70;77.10;;;;;;10555442;27;20657;-56
2023/12/04 20:02:09;;;;;;;7.43;5.25;;;16.70;77.30;;;;;;10542344;27;20111;-55
2023/12/04 20:07:11;;;;;;;4.57;2.60;;;16.70;77.20;;;;;;10543763;27;20044;-57
2023/12/04 20:12:14;;;;;;;7.03;2.87;;;16.80;77.40;;;;;;10554483;27;20064;-56
2023/12/04 20:17:16;;;;;;;4.05;2.67;;;16.80;77.40;;;;;;10548873;28;20745;-56
2023/12/04 20:22:18;;;;;;;7.78;2.65;;;16.90;77.30;;;;;;10560141;28;20055;-55
2023/12/04 20:27:21;;;;;;;6.37;2.53;;;16.90;77.40;;;;;;10551212;28;20764;-56
2023/12/04 20:32:23;;;;;;;14.02;3.25;;;16.90;77.30;;;;;;10546400;27;20139;-56
2023/12/04 20:37:25;;;;;;;18.33;3.40;;;16.90;77.30;;;;;;10550273;28;20098;-56
2023/12/04 20:42:28;;;;;;;11.80;3.08;;;16.90;77.20;;;;;;10539850;28;20156;-54
2023/12/04 20:47:30;;;;;;;13.20;2.80;;;16.90;77.30;;;;;;10540878;27;20062;-56
2023/12/04 20:52:32;;;;;;;13.00;3.37;;;16.90;77.30;;;;;;10551646;27;20046;-55
2023/12/04 20:57:36;;;;;;;7.18;2.25;;;16.80;77.30;;;;;;10550576;27;20820;-56
2023/12/04 21:02:38;;;;;;;7.60;3.05;;;16.90;77.20;;;;;;10556699;27;20055;-57
2023/12/04 21:07:40;;;;;;;16.03;3.00;;;16.90;77.00;;;;;;10554243;27;23207;-56
2023/12/04 21:12:43;;;;;;;11.70;3.60;;;17.00;76.90;;;;;;10544323;27;20055;-58
2023/12/04 21:17:45;;;;;;;11.13;2.55;;;17.00;76.60;;;;;;10556929;27;20200;-56
2023/12/04 21:22:47;;;;;;;8.93;2.57;;;17.10;76.60;;;;;;10553194;27;20546;-55
2023/12/04 21:27:50;;;;;;;8.53;3.53;;;17.10;76.50;;;;;;10562137;27;20054;-56
2023/12/04 21:32:52;;;;;;;6.90;2.60;;;17.00;76.50;;;;;;10572352;27;20040;-57
2023/12/04 21:37:54;;;;;;;8.07;1.97;;;17.00;76.40;;;;;;10578901;27;20043;-54
2023/12/04 21:42:57;;;;;;;7.83;2.70;;;17.10;76.20;;;;;;10568219;27;20051;-54
2023/12/04 21:47:59;;;;;;;6.93;2.42;;;17.00;76.30;;;;;;10560883;27;20075;-57
2023/12/04 21:53:01;;;;;;;4.60;2.53;;;17.00;76.50;;;;;;10558005;27;20052;-55
2023/12/04 21:58:05;;;;;;;7.20;3.15;;;17.00;76.40;;;;;;10560713;27;20039;-59
2023/12/04 22:03:07;;;;;;;7.53;3.55;;;17.00;76.40;;;;;;10562971;27;20537;-52
2023/12/04 22:08:09;;;;;;;7.73;2.60;;;17.00;76.40;;;;;;10560635;27;20063;-56
2023/12/04 22:13:12;;;;;;;5.50;2.60;;;17.00;76.20;;;;;;10563453;27;20139;-54
2023/12/04 22:18:14;;;;;;;10.52;2.78;;;17.00;76.10;;;;;;10562561;27;20925;-55
2023/12/04 22:23:17;;;;;;;5.07;2.30;;;17.00;76.00;;;;;;10565860;27;20066;-55
2023/12/04 22:28:20;;;;;;;3.45;2.22;;;17.00;76.00;;;;;;10563440;27;20217;-54
2023/12/04 22:33:22;;;;;;;4.70;2.38;;;17.00;76.10;;;;;;10559899;27;20398;-55
2023/12/04 22:38:24;;;;;;;4.37;2.30;;;17.00;76.10;;;;;;10567992;27;20062;-57
2023/12/04 22:43:28;;;;;;;4.43;2.13;;;16.90;76.10;;;;;;10546011;27;20054;-56
2023/12/04 22:48:30;;;;;;;5.05;2.33;;;16.90;76.20;;;;;;10543199;27;20488;-54
2023/12/04 22:53:32;;;;;;;3.30;2.25;;;16.90;76.10;;;;;;10556799;27;20225;-57
2023/12/04 22:58:35;;;;;;;4.27;2.80;;;16.90;76.20;;;;;;10557776;27;20083;-56
2023/12/04 23:03:37;;;;;;;6.93;2.70;;;16.90;76.20;;;;;;10561004;27;20510;-56
2023/12/04 23:08:41;;;;;;;6.47;3.03;;;16.80;76.20;;;;;;10557224;27;20160;-57
2023/12/04 23:13:45;;;;;;;10.52;2.67;;;16.80;76.20;;;;;;10558662;27;20543;-55
2023/12/04 23:18:47;;;;;;;7.60;3.08;;;16.80;76.20;;;;;;10558201;27;20048;-54
2023/12/04 23:23:49;;;;;;;5.17;2.50;;;16.80;76.20;;;;;;10561916;27;20142;-54
2023/12/04 23:28:52;;;;;;;7.93;2.83;;;16.80;76.20;;;;;;10567502;27;20047;-54
2023/12/04 23:33:54;;;;;;;4.43;2.45;;;16.80;76.30;;;;;;10560658;27;20062;-56
2023/12/04 23:38:56;;;;;;;5.15;2.33;;;16.70;76.20;;;;;;10550955;27;20050;-54
2023/12/04 23:44:00;;;;;;;2.60;1.63;;;16.80;76.30;;;;;;10552008;27;21491;-53
2023/12/04 23:49:02;;;;;;;5.32;2.53;;;16.70;76.20;;;;;;10563458;27;20047;-56
2023/12/04 23:54:04;;;;;;;6.40;1.90;;;16.70;76.20;;;;;;10561888;27;20126;-55
2023/12/04 23:59:08;;;;;;;4.65;2.50;;;16.70;76.20;;;;;;10584719;27;20042;-56
